sensor_id;sensor_type;location;lat;lon;timestamp;pressure;altitude;pressure_sealevel;temperature;humidity
67377;BME280;54261;46.086;6.588;2023-04-03T00:03:39;92606.19;;;1.57;66.52
67377;BME280;54261;46.086;6.588;2023-04-03T00:08:42;92601.94;;;4.55;61.80
67377;BME280;54261;46.086;6.588;2023-04-03T00:13:44;92606.56;;;5.67;56.68
67377;BME280;54261;46.086;6.588;2023-04-03T00:18:46;92601.56;;;6.86;54.61
67377;BME280;54261;46.086;6.588;2023-04-03T00:23:48;92610.72;;;6.22;50.53
67377;BME280;54261;46.086;6.588;2023-04-03T00:28:49;92607.19;;;3.49;56.48
67377;BME280;54261;46.086;6.588;2023-04-03T00:33:51;92605.88;;;3.47;57.71
67377;BME280;54261;46.086;6.588;2023-04-03T00:38:53;92589.22;;;3.05;58.45
67377;BME280;54261;46.086;6.588;2023-04-03T00:43:55;92582.94;;;4.37;57.51
67377;BME280;54261;46.086;6.588;2023-04-03T00:48:57;92584.41;;;5.96;56.03
67377;BME280;54261;46.086;6.588;2023-04-03T00:54:01;92580.78;;;7.02;53.53
67377;BME280;54261;46.086;6.588;2023-04-03T00:59:09;92572.41;;;7.09;51.26
67377;BME280;54261;46.086;6.588;2023-04-03T01:09:29;92557.94;;;7.85;49.04
67377;BME280;54261;46.086;6.588;2023-04-03T01:14:31;92561.72;;;5.26;51.34
67377;BME280;54261;46.086;6.588;2023-04-03T01:19:36;92557.59;;;3.29;56.71
67377;BME280;54261;46.086;6.588;2023-04-03T01:24:40;92561.88;;;3.96;55.92
67377;BME280;54261;46.086;6.588;2023-04-03T01:29:45;92552.81;;;3.47;57.41
67377;BME280;54261;46.086;6.588;2023-04-03T01:34:47;92565.84;;;4.49;55.84
67377;BME280;54261;46.086;6.588;2023-04-03T01:39:49;92547.91;;;6.35;52.72
67377;BME280;54261;46.086;6.588;2023-04-03T01:44:51;92551.03;;;6.76;50.81
67377;BME280;54261;46.086;6.588;2023-04-03T01:49:53;92557.72;;;7.40;49.04
67377;BME280;54261;46.086;6.588;2023-04-03T01:54:54;92549.31;;;7.88;48.61
67377;BME280;54261;46.086;6.588;2023-04-03T01:59:56;92549.69;;;7.26;47.09
67377;BME280;54261;46.086;6.588;2023-04-03T02:04:58;92548.41;;;5.26;50.35
67377;BME280;54261;46.086;6.588;2023-04-03T02:10:00;92537.34;;;7.44;47.45
67377;BME280;54261;46.086;6.588;2023-04-03T02:15:02;92542.53;;;5.78;48.39
67377;BME280;54261;46.086;6.588;2023-04-03T02:20:04;92558.06;;;7.05;48.39
67377;BME280;54261;46.086;6.588;2023-04-03T02:25:07;92548.81;;;7.58;46.61
67377;BME280;54261;46.086;6.588;2023-04-03T02:30:09;92543.56;;;7.25;46.53
67377;BME280;54261;46.086;6.588;2023-04-03T02:35:12;92543.91;;;7.65;44.92
67377;BME280;54261;46.086;6.588;2023-04-03T02:40:14;92542.97;;;8.12;45.35
67377;BME280;54261;46.086;6.588;2023-04-03T02:45:16;92530.47;;;6.95;45.65
67377;BME280;54261;46.086;6.588;2023-04-03T02:50:18;92491.47;;;7.42;45.00
67377;BME280;54261;46.086;6.588;2023-04-03T02:55:20;92539.44;;;6.86;44.30
67377;BME280;54261;46.086;6.588;2023-04-03T03:00:24;92529.97;;;4.46;52.26
67377;BME280;54261;46.086;6.588;2023-04-03T03:05:26;92522.38;;;6.48;48.40
67377;BME280;54261;46.086;6.588;2023-04-03T03:10:28;92527.63;;;7.20;46.80
67377;BME280;54261;46.086;6.588;2023-04-03T03:15:30;92513.22;;;6.74;46.00
67377;BME280;54261;46.086;6.588;2023-04-03T03:20:32;92513.06;;;4.32;51.63
67377;BME280;54261;46.086;6.588;2023-04-03T03:25:38;92528.13;;;5.30;49.86
67377;BME280;54261;46.086;6.588;2023-04-03T03:30:41;92520.50;;;7.01;48.59
67377;BME280;54261;46.086;6.588;2023-04-03T03:35:44;92528.53;;;7.29;46.61
67377;BME280;54261;46.086;6.588;2023-04-03T03:40:48;92519.16;;;7.32;45.98
67377;BME280;54261;46.086;6.588;2023-04-03T03:45:52;92516.56;;;7.55;45.57
67377;BME280;54261;46.086;6.588;2023-04-03T03:50:55;92508.94;;;7.76;44.38
67377;BME280;54261;46.086;6.588;2023-04-03T03:56:02;92508.34;;;7.93;44.24
67377;BME280;54261;46.086;6.588;2023-04-03T04:01:06;92521.03;;;8.38;43.79
67377;BME280;54261;46.086;6.588;2023-04-03T04:06:14;92505.94;;;8.42;43.20
67377;BME280;54261;46.086;6.588;2023-04-03T04:11:16;92520.00;;;8.11;43.32
67377;BME280;54261;46.086;6.588;2023-04-03T04:16:20;92524.09;;;7.66;43.63
67377;BME280;54261;46.086;6.588;2023-04-03T04:21:22;92517.91;;;6.96;43.47
67377;BME280;54261;46.086;6.588;2023-04-03T04:26:26;92520.59;;;7.24;44.99
67377;BME280;54261;46.086;6.588;2023-04-03T04:31:28;92500.72;;;6.36;45.00
67377;BME280;54261;46.086;6.588;2023-04-03T04:36:30;92512.94;;;7.50;45.06
67377;BME280;54261;46.086;6.588;2023-04-03T04:41:32;92511.91;;;8.02;44.39
67377;BME280;54261;46.086;6.588;2023-04-03T04:46:36;92497.13;;;8.05;43.60
67377;BME280;54261;46.086;6.588;2023-04-03T04:51:39;92499.22;;;8.08;42.87
67377;BME280;54261;46.086;6.588;2023-04-03T04:56:54;92509.59;;;8.46;42.88
67377;BME280;54261;46.086;6.588;2023-04-03T05:01:56;92479.66;;;7.99;42.09
67377;BME280;54261;46.086;6.588;2023-04-03T05:06:59;92516.91;;;6.59;44.44
67377;BME280;54261;46.086;6.588;2023-04-03T05:12:04;92513.09;;;7.96;43.70
67377;BME280;54261;46.086;6.588;2023-04-03T05:17:12;92502.41;;;7.68;43.52
67377;BME280;54261;46.086;6.588;2023-04-03T05:22:17;92512.22;;;7.73;43.62
67377;BME280;54261;46.086;6.588;2023-04-03T05:27:19;92510.31;;;7.17;44.40
67377;BME280;54261;46.086;6.588;2023-04-03T05:32:26;92516.34;;;2.24;57.50
67377;BME280;54261;46.086;6.588;2023-04-03T05:37:45;92506.22;;;3.75;54.99
67377;BME280;54261;46.086;6.588;2023-04-03T05:42:48;92509.06;;;5.72;51.72
67377;BME280;54261;46.086;6.588;2023-04-03T05:47:52;92518.72;;;6.97;49.84
67377;BME280;54261;46.086;6.588;2023-04-03T05:52:57;92511.66;;;3.99;53.39
67377;BME280;54261;46.086;6.588;2023-04-03T05:58:02;92523.19;;;1.89;60.67
67377;BME280;54261;46.086;6.588;2023-04-03T06:03:04;92518.94;;;3.18;57.91
67377;BME280;54261;46.086;6.588;2023-04-03T06:08:07;92480.91;;;1.15;63.70
67377;BME280;54261;46.086;6.588;2023-04-03T06:13:10;92535.13;;;2.95;63.07
67377;BME280;54261;46.086;6.588;2023-04-03T06:18:12;92519.41;;;5.24;57.88
67377;BME280;54261;46.086;6.588;2023-04-03T06:23:14;92519.94;;;1.56;63.75
67377;BME280;54261;46.086;6.588;2023-04-03T06:28:16;92522.75;;;2.44;63.66
67377;BME280;54261;46.086;6.588;2023-04-03T06:33:18;92503.38;;;5.05;59.13
67377;BME280;54261;46.086;6.588;2023-04-03T06:38:19;92507.63;;;2.50;59.81
67377;BME280;54261;46.086;6.588;2023-04-03T06:43:21;92522.84;;;0.96;65.49
67377;BME280;54261;46.086;6.588;2023-04-03T06:48:25;92520.31;;;1.22;65.73
67377;BME280;54261;46.086;6.588;2023-04-03T06:53:26;92509.22;;;4.13;63.09
67377;BME280;54261;46.086;6.588;2023-04-03T06:58:28;92522.31;;;5.04;58.08
67377;BME280;54261;46.086;6.588;2023-04-03T07:03:30;92529.59;;;2.19;60.87
67377;BME280;54261;46.086;6.588;2023-04-03T07:08:34;92515.53;;;1.93;63.43
67377;BME280;54261;46.086;6.588;2023-04-03T07:13:36;92510.31;;;0.43;68.99
67377;BME280;54261;46.086;6.588;2023-04-03T07:18:38;92494.66;;;0.64;68.20
67377;BME280;54261;46.086;6.588;2023-04-03T07:23:40;92504.16;;;2.80;61.88
67377;BME280;54261;46.086;6.588;2023-04-03T07:28:42;92472.44;;;4.90;58.42
67377;BME280;54261;46.086;6.588;2023-04-03T07:33:45;92501.50;;;2.75;62.63
67377;BME280;54261;46.086;6.588;2023-04-03T07:38:47;92507.63;;;1.24;67.44
67377;BME280;54261;46.086;6.588;2023-04-03T07:43:49;92508.75;;;3.96;61.48
67377;BME280;54261;46.086;6.588;2023-04-03T07:48:51;92513.31;;;0.89;67.40
67377;BME280;54261;46.086;6.588;2023-04-03T07:53:53;92510.69;;;0.19;71.21
67377;BME280;54261;46.086;6.588;2023-04-03T07:58:55;92498.03;;;3.66;64.99
67377;BME280;54261;46.086;6.588;2023-04-03T08:03:56;92508.97;;;2.57;61.40
67377;BME280;54261;46.086;6.588;2023-04-03T08:08:58;92515.75;;;0.58;67.96
67377;BME280;54261;46.086;6.588;2023-04-03T08:14:00;92506.44;;;0.51;69.78
67377;BME280;54261;46.086;6.588;2023-04-03T08:19:03;92509.91;;;-0.37;73.98
67377;BME280;54261;46.086;6.588;2023-04-03T08:24:10;92502.31;;;1.13;73.37
67377;BME280;54261;46.086;6.588;2023-04-03T08:29:12;92506.06;;;3.51;64.13
67377;BME280;54261;46.086;6.588;2023-04-03T08:34:15;92504.88;;;3.17;61.14
67377;BME280;54261;46.086;6.588;2023-04-03T08:39:16;92496.22;;;2.39;63.20
67377;BME280;54261;46.086;6.588;2023-04-03T08:49:31;92517.38;;;3.06;62.64
67377;BME280;54261;46.086;6.588;2023-04-03T08:54:38;92521.94;;;2.69;65.90
67377;BME280;54261;46.086;6.588;2023-04-03T08:59:42;92515.41;;;5.03;55.98
67377;BME280;54261;46.086;6.588;2023-04-03T09:04:44;92495.59;;;3.14;61.76
67377;BME280;54261;46.086;6.588;2023-04-03T09:09:46;92509.34;;;4.33;61.19
67377;BME280;54261;46.086;6.588;2023-04-03T09:15:03;92509.84;;;4.99;56.50
67377;BME280;54261;46.086;6.588;2023-04-03T09:25:20;92507.53;;;5.17;55.49
67377;BME280;54261;46.086;6.588;2023-04-03T09:30:25;92507.94;;;4.46;56.66
67377;BME280;54261;46.086;6.588;2023-04-03T09:35:32;92507.53;;;1.72;64.82
67377;BME280;54261;46.086;6.588;2023-04-03T09:40:51;92497.53;;;2.10;62.83
67377;BME280;54261;46.086;6.588;2023-04-03T09:46:29;92511.81;;;2.97;60.62
67377;BME280;54261;46.086;6.588;2023-04-03T09:51:31;92498.53;;;3.68;57.54
67377;BME280;54261;46.086;6.588;2023-04-03T09:56:34;92491.84;;;5.39;53.54
67377;BME280;54261;46.086;6.588;2023-04-03T10:01:38;92493.56;;;2.18;60.68
67377;BME280;54261;46.086;6.588;2023-04-03T10:06:44;92499.47;;;0.72;66.20
67377;BME280;54261;46.086;6.588;2023-04-03T10:12:08;92493.28;;;1.04;67.26
67377;BME280;54261;46.086;6.588;2023-04-03T10:28:33;92480.31;;;1.87;62.30
67377;BME280;54261;46.086;6.588;2023-04-03T10:33:52;92479.78;;;2.06;64.94
67377;BME280;54261;46.086;6.588;2023-04-03T10:55:43;92457.03;;;2.25;62.11
67377;BME280;54261;46.086;6.588;2023-04-03T11:00:50;92470.19;;;1.63;64.25
67377;BME280;54261;46.086;6.588;2023-04-03T11:05:55;92459.03;;;0.33;65.75
67377;BME280;54261;46.086;6.588;2023-04-03T11:11:05;92463.16;;;3.33;59.71
67377;BME280;54261;46.086;6.588;2023-04-03T11:16:08;92448.78;;;2.63;60.90
67377;BME280;54261;46.086;6.588;2023-04-03T11:21:16;92448.50;;;1.61;62.50
67377;BME280;54261;46.086;6.588;2023-04-03T11:26:27;92456.97;;;2.82;59.15
67377;BME280;54261;46.086;6.588;2023-04-03T11:31:54;92449.78;;;0.36;66.31
67377;BME280;54261;46.086;6.588;2023-04-03T11:37:01;92441.66;;;0.43;66.68
67377;BME280;54261;46.086;6.588;2023-04-03T11:42:25;92435.31;;;2.49;61.98
67377;BME280;54261;46.086;6.588;2023-04-03T11:47:50;92432.31;;;3.48;59.03
67377;BME280;54261;46.086;6.588;2023-04-03T11:52:54;92429.91;;;3.91;56.88
67377;BME280;54261;46.086;6.588;2023-04-03T11:58:09;92430.53;;;2.25;62.07
67377;BME280;54261;46.086;6.588;2023-04-03T12:08:48;92417.19;;;3.48;56.41
67377;BME280;54261;46.086;6.588;2023-04-03T12:34:55;92403.69;;;1.18;62.98
67377;BME280;54261;46.086;6.588;2023-04-03T12:40:10;92396.09;;;2.20;60.09
67377;BME280;54261;46.086;6.588;2023-04-03T12:45:23;92377.53;;;2.56;58.75
67377;BME280;54261;46.086;6.588;2023-04-03T12:50:32;92382.31;;;2.44;58.37
67377;BME280;54261;46.086;6.588;2023-04-03T12:55:37;92389.41;;;3.35;54.35
67377;BME280;54261;46.086;6.588;2023-04-03T13:00:39;92360.16;;;3.40;54.32
67377;BME280;54261;46.086;6.588;2023-04-03T13:05:44;92381.34;;;4.98;52.42
67377;BME280;54261;46.086;6.588;2023-04-03T13:15:55;92355.69;;;3.76;54.68
67377;BME280;54261;46.086;6.588;2023-04-03T13:21:03;92360.69;;;3.82;53.19
67377;BME280;54261;46.086;6.588;2023-04-03T13:26:06;92361.41;;;4.52;51.91
67377;BME280;54261;46.086;6.588;2023-04-03T13:36:23;92361.63;;;4.32;50.07
67377;BME280;54261;46.086;6.588;2023-04-03T13:41:37;92349.75;;;2.33;56.88
67377;BME280;54261;46.086;6.588;2023-04-03T13:46:39;92347.34;;;3.13;52.70
67377;BME280;54261;46.086;6.588;2023-04-03T13:51:41;92340.78;;;2.08;54.45
67377;BME280;54261;46.086;6.588;2023-04-03T13:56:43;92328.28;;;5.32;49.94
67377;BME280;54261;46.086;6.588;2023-04-03T14:07:03;92328.34;;;3.75;49.90
67377;BME280;54261;46.086;6.588;2023-04-03T14:12:30;92348.81;;;3.69;48.45
67377;BME280;54261;46.086;6.588;2023-04-03T14:17:32;92324.13;;;5.97;47.45
67377;BME280;54261;46.086;6.588;2023-04-03T14:22:35;92322.91;;;4.50;46.86
67377;BME280;54261;46.086;6.588;2023-04-03T14:27:42;92339.41;;;4.71;47.72
67377;BME280;54261;46.086;6.588;2023-04-03T14:32:45;92326.44;;;3.81;49.24
67377;BME280;54261;46.086;6.588;2023-04-03T14:37:47;92326.91;;;6.06;45.59
67377;BME280;54261;46.086;6.588;2023-04-03T14:42:50;92327.34;;;4.30;48.67
67377;BME280;54261;46.086;6.588;2023-04-03T14:47:54;92317.50;;;3.71;49.25
67377;BME280;54261;46.086;6.588;2023-04-03T14:52:58;92277.66;;;4.06;47.67
67377;BME280;54261;46.086;6.588;2023-04-03T14:58:01;92315.41;;;4.76;49.03
67377;BME280;54261;46.086;6.588;2023-04-03T15:03:03;92320.41;;;4.59;46.01
67377;BME280;54261;46.086;6.588;2023-04-03T15:08:13;92302.78;;;3.84;46.58
67377;BME280;54261;46.086;6.588;2023-04-03T15:13:19;92304.94;;;5.43;43.03
67377;BME280;54261;46.086;6.588;2023-04-03T15:18:24;92299.25;;;2.80;47.95
67377;BME280;54261;46.086;6.588;2023-04-03T15:23:29;92306.50;;;4.42;45.93
67377;BME280;54261;46.086;6.588;2023-04-03T15:28:39;92304.31;;;5.12;45.85
67377;BME280;54261;46.086;6.588;2023-04-03T15:33:42;92300.84;;;4.93;46.09
67377;BME280;54261;46.086;6.588;2023-04-03T15:38:43;92287.47;;;7.65;40.59
67377;BME280;54261;46.086;6.588;2023-04-03T15:43:45;92299.03;;;6.45;43.15
67377;BME280;54261;46.086;6.588;2023-04-03T15:48:47;92285.59;;;4.79;46.22
67377;BME280;54261;46.086;6.588;2023-04-03T15:53:49;92305.38;;;3.60;46.63
67377;BME280;54261;46.086;6.588;2023-04-03T15:58:50;92305.88;;;1.59;51.51
67377;BME280;54261;46.086;6.588;2023-04-03T16:03:52;92288.84;;;3.34;47.89
67377;BME280;54261;46.086;6.588;2023-04-03T16:08:54;92295.28;;;2.82;47.44
67377;BME280;54261;46.086;6.588;2023-04-03T16:13:59;92301.03;;;2.13;49.13
67377;BME280;54261;46.086;6.588;2023-04-03T16:19:01;92288.34;;;3.66;46.95
67377;BME280;54261;46.086;6.588;2023-04-03T16:24:04;92289.13;;;6.04;42.43
67377;BME280;54261;46.086;6.588;2023-04-03T16:29:06;92284.59;;;6.32;41.87
67377;BME280;54261;46.086;6.588;2023-04-03T16:34:07;92297.47;;;5.06;43.23
67377;BME280;54261;46.086;6.588;2023-04-03T16:39:09;92290.72;;;6.33;40.83
67377;BME280;54261;46.086;6.588;2023-04-03T16:44:11;92298.78;;;5.28;42.03
67377;BME280;54261;46.086;6.588;2023-04-03T16:49:13;92301.47;;;6.14;41.28
67377;BME280;54261;46.086;6.588;2023-04-03T16:54:15;92295.53;;;4.49;42.06
67377;BME280;54261;46.086;6.588;2023-04-03T16:59:16;92301.63;;;4.50;44.11
67377;BME280;54261;46.086;6.588;2023-04-03T17:04:18;92309.75;;;2.35;48.12
67377;BME280;54261;46.086;6.588;2023-04-03T17:09:21;92305.28;;;4.05;44.79
67377;BME280;54261;46.086;6.588;2023-04-03T17:14:24;92303.13;;;3.43;46.45
67377;BME280;54261;46.086;6.588;2023-04-03T17:19:27;92314.00;;;3.01;46.70
67377;BME280;54261;46.086;6.588;2023-04-03T17:24:29;92311.34;;;3.76;44.23
67377;BME280;54261;46.086;6.588;2023-04-03T17:29:31;92321.09;;;4.21;44.26
67377;BME280;54261;46.086;6.588;2023-04-03T17:34:33;92315.19;;;3.60;43.80
67377;BME280;54261;46.086;6.588;2023-04-03T17:39:36;92323.88;;;4.00;44.80
67377;BME280;54261;46.086;6.588;2023-04-03T17:44:38;92311.31;;;2.46;45.82
67377;BME280;54261;46.086;6.588;2023-04-03T17:49:40;92324.03;;;2.34;47.33
67377;BME280;54261;46.086;6.588;2023-04-03T17:54:42;92319.38;;;1.94;48.26
67377;BME280;54261;46.086;6.588;2023-04-03T17:59:44;92323.84;;;3.76;43.96
67377;BME280;54261;46.086;6.588;2023-04-03T18:04:45;92321.81;;;2.72;45.23
67377;BME280;54261;46.086;6.588;2023-04-03T18:09:48;92336.34;;;1.57;49.67
67377;BME280;54261;46.086;6.588;2023-04-03T18:14:51;92334.00;;;0.55;50.34
67377;BME280;54261;46.086;6.588;2023-04-03T18:19:53;92331.78;;;1.99;48.21
67377;BME280;54261;46.086;6.588;2023-04-03T18:24:55;92335.47;;;0.94;49.63
67377;BME280;54261;46.086;6.588;2023-04-03T18:30:00;92341.63;;;1.62;47.68
67377;BME280;54261;46.086;6.588;2023-04-03T18:35:04;92347.22;;;2.83;46.38
67377;BME280;54261;46.086;6.588;2023-04-03T18:40:06;92342.16;;;1.43;46.75
67377;BME280;54261;46.086;6.588;2023-04-03T18:45:10;92356.84;;;0.93;49.43
67377;BME280;54261;46.086;6.588;2023-04-03T18:50:12;92353.91;;;2.65;45.10
67377;BME280;54261;46.086;6.588;2023-04-03T18:55:15;92361.13;;;-0.68;51.81
67377;BME280;54261;46.086;6.588;2023-04-03T19:00:19;92366.53;;;-0.20;51.08
67377;BME280;54261;46.086;6.588;2023-04-03T19:05:21;92346.44;;;-1.63;55.31
67377;BME280;54261;46.086;6.588;2023-04-03T19:10:24;92356.84;;;-1.29;55.05
67377;BME280;54261;46.086;6.588;2023-04-03T19:15:27;92342.09;;;1.17;47.86
67377;BME280;54261;46.086;6.588;2023-04-03T19:20:29;92369.81;;;2.65;46.41
67377;BME280;54261;46.086;6.588;2023-04-03T19:25:31;92320.94;;;1.02;46.34
67377;BME280;54261;46.086;6.588;2023-04-03T19:30:33;92355.53;;;3.62;43.34
67377;BME280;54261;46.086;6.588;2023-04-03T19:35:39;92365.69;;;3.84;42.51
67377;BME280;54261;46.086;6.588;2023-04-03T19:40:41;92367.19;;;2.60;43.53
67377;BME280;54261;46.086;6.588;2023-04-03T19:45:46;92365.13;;;3.92;41.71
67377;BME280;54261;46.086;6.588;2023-04-03T19:50:48;92351.09;;;2.41;43.82
67377;BME280;54261;46.086;6.588;2023-04-03T19:55:50;92354.97;;;3.25;42.09
67377;BME280;54261;46.086;6.588;2023-04-03T20:00:52;92352.66;;;-0.10;49.72
67377;BME280;54261;46.086;6.588;2023-04-03T20:05:55;92360.88;;;1.31;46.47
67377;BME280;54261;46.086;6.588;2023-04-03T20:10:58;92356.34;;;2.46;44.79
67377;BME280;54261;46.086;6.588;2023-04-03T20:16:04;92341.28;;;0.96;45.24
67377;BME280;54261;46.086;6.588;2023-04-03T20:21:06;92347.97;;;1.97;44.30
67377;BME280;54261;46.086;6.588;2023-04-03T20:26:08;92348.22;;;1.70;45.09
67377;BME280;54261;46.086;6.588;2023-04-03T20:31:16;92351.84;;;3.12;42.65
67377;BME280;54261;46.086;6.588;2023-04-03T20:36:19;92351.88;;;2.31;43.45
67377;BME280;54261;46.086;6.588;2023-04-03T20:41:22;92346.31;;;3.04;43.59
67377;BME280;54261;46.086;6.588;2023-04-03T20:46:24;92347.41;;;3.82;40.80
67377;BME280;54261;46.086;6.588;2023-04-03T20:51:43;92363.56;;;3.06;42.51
67377;BME280;54261;46.086;6.588;2023-04-03T20:56:45;92346.53;;;3.92;40.16
67377;BME280;54261;46.086;6.588;2023-04-03T21:01:50;92344.38;;;3.60;41.12
67377;BME280;54261;46.086;6.588;2023-04-03T21:23:13;92343.44;;;2.03;43.95
67377;BME280;54261;46.086;6.588;2023-04-03T21:28:15;92337.03;;;2.46;42.79
67377;BME280;54261;46.086;6.588;2023-04-03T21:33:18;92330.69;;;2.26;43.06
67377;BME280;54261;46.086;6.588;2023-04-03T21:38:19;92335.78;;;1.76;44.48
67377;BME280;54261;46.086;6.588;2023-04-03T21:43:21;92325.47;;;1.22;46.04
67377;BME280;54261;46.086;6.588;2023-04-03T21:48:23;92323.88;;;1.94;43.29
67377;BME280;54261;46.086;6.588;2023-04-03T21:53:26;92323.84;;;3.36;42.21
67377;BME280;54261;46.086;6.588;2023-04-03T21:58:31;92328.03;;;3.07;42.28
67377;BME280;54261;46.086;6.588;2023-04-03T22:03:33;92324.84;;;0.25;47.21
67377;BME280;54261;46.086;6.588;2023-04-03T22:08:35;92306.63;;;2.07;44.15
67377;BME280;54261;46.086;6.588;2023-04-03T22:13:37;92290.47;;;2.13;43.23
67377;BME280;54261;46.086;6.588;2023-04-03T22:18:39;92320.47;;;-0.07;47.88
67377;BME280;54261;46.086;6.588;2023-04-03T22:23:41;92292.66;;;0.28;46.40
67377;BME280;54261;46.086;6.588;2023-04-03T22:28:45;92323.16;;;0.03;47.87
67377;BME280;54261;46.086;6.588;2023-04-03T22:33:47;92319.59;;;0.94;47.72
67377;BME280;54261;46.086;6.588;2023-04-03T22:38:49;92320.09;;;-0.91;51.52
67377;BME280;54261;46.086;6.588;2023-04-03T22:43:51;92319.13;;;-0.47;49.57
67377;BME280;54261;46.086;6.588;2023-04-03T22:48:52;92323.38;;;0.45;48.80
67377;BME280;54261;46.086;6.588;2023-04-03T22:53:54;92316.84;;;0.04;48.06
67377;BME280;54261;46.086;6.588;2023-04-03T22:58:56;92312.97;;;0.86;46.05
67377;BME280;54261;46.086;6.588;2023-04-03T23:03:58;92326.84;;;-0.73;50.17
67377;BME280;54261;46.086;6.588;2023-04-03T23:09:00;92316.72;;;1.01;46.80
67377;BME280;54261;46.086;6.588;2023-04-03T23:14:03;92320.97;;;-2.37;54.18
67377;BME280;54261;46.086;6.588;2023-04-03T23:19:04;92318.91;;;-1.06;54.04
67377;BME280;54261;46.086;6.588;2023-04-03T23:24:07;92322.53;;;-1.34;53.00
67377;BME280;54261;46.086;6.588;2023-04-03T23:29:09;92336.75;;;0.97;48.86
67377;BME280;54261;46.086;6.588;2023-04-03T23:34:11;92324.16;;;1.61;47.75
67377;BME280;54261;46.086;6.588;2023-04-03T23:39:13;92319.31;;;2.15;45.41
67377;BME280;54261;46.086;6.588;2023-04-03T23:44:15;92324.06;;;2.28;44.15
67377;BME280;54261;46.086;6.588;2023-04-03T23:49:17;92322.31;;;0.46;48.91
67377;BME280;54261;46.086;6.588;2023-04-03T23:54:19;92310.78;;;-0.34;48.72
67377;BME280;54261;46.086;6.588;2023-04-03T23:59:21;92315.19;;;0.46;48.45
